Time;durP1;ratioP1;P1;durP2;ratioP2;P2;SDS_P1;SDS_P2;PMS_P1;PMS_P2;Temp;Humidity;BMP_temperature;BMP_pressure;BME280_temperature;BME280_humidity;BME280_pressure;Samples;Min_cycle;Max_cycle;Signal;HPM_P1;HPM_P2
2022/06/22 00:02:32;;;;;;;0.82;0.82;;;25.90;51.60;;;;;;5106707;28;20047;-64
2022/06/22 00:05:05;;;;;;;1.00;1.00;;;25.90;51.60;;;;;;5106398;28;20354;-64
2022/06/22 00:07:38;;;;;;;1.20;1.10;;;25.90;51.60;;;;;;5105595;28;20044;-63
2022/06/22 00:10:28;;;;;;;1.10;1.10;;;25.90;51.60;;;;;;5106029;28;20052;-63
2022/06/22 00:12:56;;;;;;;;;;;25.90;51.60;;;;;;5110020;28;20236;-63
2022/06/22 00:15:36;;;;;;;1.00;1.00;;;25.90;51.60;;;;;;5110545;28;19919;-63
2022/06/22 00:18:24;;;;;;;1.20;0.80;;;25.90;51.60;;;;;;5092120;28;20079;-63
2022/06/22 00:20:54;;;;;;;1.15;0.88;;;25.90;51.60;;;;;;5089951;28;20366;-63
2022/06/22 00:23:36;;;;;;;0.75;0.75;;;25.90;51.60;;;;;;5089285;28;20064;-63
2022/06/22 00:26:31;;;;;;;0.73;0.73;;;25.90;51.60;;;;;;5089590;28;20105;-63
2022/06/22 00:29:20;;;;;;;1.10;1.00;;;25.90;51.60;;;;;;5088460;28;20199;-63
2022/06/22 00:32:00;;;;;;;1.00;0.93;;;25.80;51.60;;;;;;5090084;28;20085;-63
2022/06/22 00:34:31;;;;;;;2.60;1.40;;;25.90;51.70;;;;;;5088061;28;20040;-63
2022/06/22 00:37:05;;;;;;;0.55;0.55;;;25.90;51.70;;;;;;5089788;28;20044;-64
2022/06/22 00:39:38;;;;;;;0.93;0.93;;;25.90;51.70;;;;;;5089375;28;20105;-63
2022/06/22 00:42:37;;;;;;;0.82;0.65;;;25.90;51.70;;;;;;5088946;28;20105;-63
2022/06/22 00:45:09;;;;;;;0.93;0.93;;;25.90;51.70;;;;;;5088958;28;20125;-63
2022/06/22 00:47:58;;;;;;;1.00;1.00;;;25.90;51.70;;;;;;5089591;28;20097;-63
2022/06/22 00:50:29;;;;;;;1.50;1.00;;;25.90;51.70;;;;;;5089524;28;20047;-64
2022/06/22 00:53:20;;;;;;;1.40;0.90;;;25.80;51.60;;;;;;5089176;28;20076;-63
2022/06/22 00:55:57;;;;;;;0.82;0.82;;;25.80;51.70;;;;;;5088875;28;20097;-65
2022/06/22 00:58:36;;;;;;;0.80;0.80;;;25.80;51.60;;;;;;5089231;28;20108;-63
2022/06/22 01:01:20;;;;;;;1.00;1.00;;;25.90;51.70;;;;;;5089354;28;20048;-64
2022/06/22 01:04:07;;;;;;;0.90;0.90;;;25.90;51.70;;;;;;5088798;28;20134;-64
2022/06/22 01:07:01;;;;;;;0.82;0.82;;;25.90;51.70;;;;;;5088544;28;20055;-63
2022/06/22 01:09:56;;;;;;;1.05;1.00;;;25.80;51.60;;;;;;5088951;28;20044;-63
2022/06/22 01:12:37;;;;;;;1.25;1.00;;;25.90;51.60;;;;;;5087350;28;20472;-64
2022/06/22 01:15:26;;;;;;;0.90;0.90;;;25.90;51.60;;;;;;5088773;28;20622;-63
2022/06/22 01:18:07;;;;;;;0.80;0.80;;;25.90;51.60;;;;;;5104932;28;20048;-64
2022/06/22 01:20:50;;;;;;;0.80;0.80;;;25.90;51.60;;;;;;5109414;28;20543;-63
2022/06/22 01:23:50;;;;;;;0.85;0.85;;;25.90;51.60;;;;;;5108549;28;20047;-63
2022/06/22 01:26:40;;;;;;;0.70;0.70;;;25.80;51.60;;;;;;5108908;28;20112;-64
2022/06/22 01:29:19;;;;;;;;;;;25.90;51.70;;;;;;5109619;28;20437;-63
2022/06/22 01:32:03;;;;;;;0.85;0.85;;;25.80;51.60;;;;;;5109071;27;20203;-63
2022/06/22 01:34:38;;;;;;;0.75;0.75;;;25.80;51.60;;;;;;5108613;28;20074;-64
2022/06/22 01:37:12;;;;;;;0.90;0.90;;;25.80;51.60;;;;;;5109020;28;20044;-63
2022/06/22 01:39:39;;;;;;;1.00;0.90;;;25.90;51.70;;;;;;5108862;28;20088;-63
2022/06/22 01:42:29;;;;;;;0.90;0.90;;;25.80;51.60;;;;;;5108382;28;20240;-64
2022/06/22 01:45:13;;;;;;;5.88;0.90;;;25.80;51.60;;;;;;5107367;28;20086;-64
2022/06/22 01:47:55;;;;;;;0.70;0.70;;;25.90;51.60;;;;;;5108393;28;20048;-63
2022/06/22 01:50:46;;;;;;;0.80;0.80;;;25.80;51.60;;;;;;5109034;28;20127;-63
2022/06/22 01:53:39;;;;;;;0.80;0.80;;;25.80;51.60;;;;;;5108572;28;20093;-63
2022/06/22 01:56:28;;;;;;;0.73;0.73;;;25.90;51.60;;;;;;5108145;28;20043;-64
2022/06/22 01:59:24;;;;;;;0.63;0.52;;;25.90;51.70;;;;;;5108640;28;20055;-63
2022/06/22 02:02:16;;;;;;;1.02;1.02;;;25.90;51.70;;;;;;5108368;28;20103;-64
2022/06/22 02:05:06;;;;;;;1.00;1.00;;;25.90;51.70;;;;;;5108683;28;20043;-64
2022/06/22 02:07:47;;;;;;;0.70;0.70;;;25.90;51.60;;;;;;5107827;28;20484;-63
2022/06/22 02:10:49;;;;;;;1.58;0.88;;;25.80;51.60;;;;;;5108401;28;20488;-63
2022/06/22 02:13:43;;;;;;;0.90;0.90;;;25.80;51.60;;;;;;5107564;27;20066;-63
2022/06/22 02:16:25;;;;;;;0.60;0.60;;;25.80;51.60;;;;;;5106318;28;20535;-64
2022/06/22 02:19:11;;;;;;;1.20;1.20;;;25.80;51.60;;;;;;5087552;28;20286;-63
2022/06/22 02:21:48;;;;;;;0.70;0.70;;;25.80;51.60;;;;;;5087344;28;20527;-63
2022/06/22 02:24:28;;;;;;;0.95;0.95;;;25.90;51.60;;;;;;5087251;28;20078;-63
2022/06/22 02:27:01;;;;;;;0.93;0.93;;;25.90;51.70;;;;;;5086513;28;20479;-63
2022/06/22 02:29:39;;;;;;;0.80;0.80;;;25.90;51.60;;;;;;5093803;28;20044;-63
2022/06/22 02:32:10;;;;;;;1.05;0.95;;;25.80;51.50;;;;;;5107527;28;20096;-64
2022/06/22 02:34:39;;;;;;;0.90;0.90;;;25.90;51.60;;;;;;5105739;28;20470;-64
2022/06/22 02:37:10;;;;;;;0.80;0.80;;;25.80;51.50;;;;;;5107272;28;20040;-64
2022/06/22 02:39:43;;;;;;;0.82;0.82;;;25.90;51.60;;;;;;5108007;28;20048;-63
2022/06/22 02:44:59;;;;;;;0.90;0.90;;;25.80;51.50;;;;;;5107044;28;20450;-63
2022/06/22 02:47:42;;;;;;;1.02;1.02;;;25.80;51.50;;;;;;5106053;28;20051;-63
2022/06/22 02:50:35;;;;;;;1.10;1.08;;;25.80;51.50;;;;;;5107658;28;20055;-63
2022/06/22 02:53:13;;;;;;;0.80;0.80;;;25.80;51.40;;;;;;5107721;28;20255;-63
2022/06/22 02:55:40;;;;;;;0.90;0.90;;;25.90;51.50;;;;;;5106611;28;20096;-63
2022/06/22 02:58:33;;;;;;;0.88;0.88;;;25.90;51.50;;;;;;5107323;28;20048;-63
2022/06/22 03:01:17;;;;;;;0.73;0.73;;;25.80;51.40;;;;;;5106896;28;20124;-63
2022/06/22 03:03:57;;;;;;;1.10;1.10;;;25.80;51.40;;;;;;5107636;28;20365;-63
2022/06/22 03:06:28;;;;;;;;;;;25.80;51.40;;;;;;5106959;28;20043;-63
2022/06/22 03:08:59;;;;;;;0.75;0.75;;;25.80;51.50;;;;;;5106169;28;20335;-63
2022/06/22 03:11:26;;;;;;;0.80;0.80;;;25.80;51.50;;;;;;5106949;28;20044;-63
2022/06/22 03:14:06;;;;;;;0.75;0.75;;;25.80;51.50;;;;;;5106108;28;20055;-63
2022/06/22 03:16:37;;;;;;;1.42;0.88;;;25.90;51.50;;;;;;5107220;28;20101;-63
2022/06/22 03:19:11;;;;;;;0.80;0.80;;;25.90;51.50;;;;;;5106220;28;20086;-63
2022/06/22 03:21:41;;;;;;;0.98;0.95;;;25.80;51.40;;;;;;5106990;28;20381;-64
2022/06/22 03:24:37;;;;;;;1.98;1.05;;;25.80;51.40;;;;;;5088817;28;20492;-63
2022/06/22 03:27:14;;;;;;;0.75;0.75;;;25.90;51.50;;;;;;5106134;28;20090;-63
2022/06/22 03:29:53;;;;;;;0.90;0.90;;;25.90;51.50;;;;;;5098062;28;20036;-63
2022/06/22 03:32:49;;;;;;;0.70;0.70;;;25.90;51.50;;;;;;5092222;28;20093;-63
2022/06/22 03:35:23;;;;;;;0.90;0.90;;;25.90;51.50;;;;;;5102813;28;20051;-63
2022/06/22 03:38:08;;;;;;;1.08;1.00;;;25.90;51.50;;;;;;5094851;28;20073;-63
2022/06/22 03:40:55;;;;;;;0.70;0.70;;;25.90;51.40;;;;;;5097711;28;20043;-63
2022/06/22 03:43:32;;;;;;;0.80;0.80;;;25.90;51.40;;;;;;5097752;28;20047;-63
2022/06/22 03:46:10;;;;;;;0.95;0.95;;;25.90;51.40;;;;;;5090244;28;20048;-63
2022/06/22 03:48:47;;;;;;;1.25;0.85;;;25.90;51.40;;;;;;5090655;28;20101;-63
2022/06/22 03:51:22;;;;;;;0.88;0.88;;;25.90;51.40;;;;;;5098843;28;20074;-63
2022/06/22 03:54:07;;;;;;;0.85;0.85;;;25.90;51.40;;;;;;5091126;28;20048;-63
2022/06/22 03:56:40;;;;;;;0.98;0.93;;;25.90;51.40;;;;;;5089931;28;20056;-63
2022/06/22 03:59:08;;;;;;;0.73;0.73;;;25.90;51.30;;;;;;5092338;28;20093;-63
2022/06/22 04:01:37;;;;;;;0.73;0.73;;;25.90;51.30;;;;;;5096837;28;20112;-63
2022/06/22 04:04:04;;;;;;;0.70;0.70;;;25.90;51.30;;;;;;5104372;28;20040;-63
2022/06/22 04:06:46;;;;;;;0.80;0.80;;;25.90;51.30;;;;;;5110337;28;20132;-63
2022/06/22 04:09:20;;;;;;;0.80;0.80;;;25.90;51.30;;;;;;5110100;28;20086;-63
2022/06/22 04:12:04;;;;;;;0.70;0.70;;;26.00;51.30;;;;;;5110307;28;20055;-63
2022/06/22 04:14:39;;;;;;;0.88;0.88;;;25.90;51.20;;;;;;5109034;28;20101;-63
2022/06/22 04:17:30;;;;;;;0.80;0.80;;;25.90;51.20;;;;;;5100944;28;20485;-63
2022/06/22 04:20:04;;;;;;;0.93;0.80;;;26.00;51.20;;;;;;5089140;28;20102;-63
2022/06/22 04:22:35;;;;;;;0.85;0.85;;;26.00;51.10;;;;;;5089428;28;20052;-63
2022/06/22 04:25:11;;;;;;;0.90;0.90;;;26.00;51.00;;;;;;5089740;28;20465;-63
2022/06/22 04:27:43;;;;;;;0.77;0.77;;;26.00;50.90;;;;;;5089195;28;20619;-63
2022/06/22 04:30:19;;;;;;;0.80;0.80;;;26.10;50.90;;;;;;5089440;28;20565;-63
2022/06/22 04:33:18;;;;;;;0.70;0.70;;;26.10;50.70;;;;;;5088863;28;20052;-63
2022/06/22 04:36:08;;;;;;;0.82;0.82;;;26.20;50.60;;;;;;5089526;28;20488;-63
2022/06/22 04:38:41;;;;;;;;;;;26.30;50.50;;;;;;5089779;28;20412;-63
2022/06/22 04:41:33;;;;;;;0.88;0.88;;;26.30;50.40;;;;;;5091198;28;19920;-63
2022/06/22 04:44:03;;;;;;;0.70;0.70;;;26.30;50.30;;;;;;5094923;28;20640;-63
2022/06/22 04:46:34;;;;;;;0.90;0.80;;;26.40;50.20;;;;;;5104998;27;20080;-64
2022/06/22 04:49:11;;;;;;;0.80;0.80;;;26.40;50.30;;;;;;5095013;27;20271;-63
2022/06/22 04:51:41;;;;;;;0.70;0.70;;;26.50;50.00;;;;;;5096544;28;20079;-63
2022/06/22 04:54:29;;;;;;;0.70;0.70;;;26.50;49.90;;;;;;5092465;28;20041;-63
2022/06/22 04:57:01;;;;;;;0.60;0.60;;;26.60;49.90;;;;;;5088486;28;20434;-63
2022/06/22 04:59:29;;;;;;;0.70;0.70;;;26.60;49.80;;;;;;5088918;28;20044;-63
2022/06/22 05:02:03;;;;;;;1.38;0.90;;;26.60;49.70;;;;;;5088069;28;20278;-63
2022/06/22 05:04:34;;;;;;;0.80;0.80;;;26.60;50.20;;;;;;5088909;28;20072;-64
2022/06/22 05:07:40;;;;;;;0.93;0.80;;;26.70;49.60;;;;;;5091641;28;20055;-63
2022/06/22 05:10:33;;;;;;;6.82;0.82;;;26.70;49.40;;;;;;5091904;28;20047;-64
2022/06/22 05:13:10;;;;;;;2.40;1.35;;;26.50;48.00;;;;;;5090268;28;20052;-63
2022/06/22 05:15:40;;;;;;;1.15;1.00;;;26.50;47.50;;;;;;5101855;28;20047;-63
2022/06/22 05:18:30;;;;;;;4.57;1.42;;;26.30;47.40;;;;;;5106584;27;20572;-63
2022/06/22 05:21:19;;;;;;;1.33;1.10;;;25.90;47.00;;;;;;5101405;27;20056;-64
2022/06/22 05:23:54;;;;;;;2.87;1.30;;;25.50;47.10;;;;;;5095005;28;20093;-64
2022/06/22 05:26:24;;;;;;;2.75;1.08;;;25.20;47.50;;;;;;5098393;28;20300;-65
2022/06/22 05:29:04;;;;;;;9.18;2.25;;;24.90;48.00;;;;;;5095187;27;20050;-64
2022/06/22 05:31:39;;;;;;;3.58;1.70;;;24.50;48.10;;;;;;5098844;28;20081;-67
2022/06/22 05:34:15;;;;;;;2.10;1.58;;;24.30;48.80;;;;;;5091723;28;20459;-63
2022/06/22 05:36:47;;;;;;;5.55;2.47;;;24.10;49.10;;;;;;5086871;28;20415;-64
2022/06/22 05:39:14;;;;;;;2.58;2.08;;;24.00;48.80;;;;;;5089887;28;20051;-63
2022/06/22 05:41:46;;;;;;;6.45;2.35;;;23.90;48.90;;;;;;5088861;28;20047;-64
2022/06/22 05:44:17;;;;;;;4.47;2.25;;;23.80;48.90;;;;;;5091794;28;20052;-64
2022/06/22 05:46:52;;;;;;;3.83;2.40;;;23.60;48.90;;;;;;5088085;28;20044;-64
2022/06/22 05:49:24;;;;;;;3.17;1.95;;;23.50;48.60;;;;;;5095569;27;20067;-64
2022/06/22 05:52:11;;;;;;;3.75;1.98;;;23.30;48.60;;;;;;5083740;28;20036;-65
2022/06/22 05:54:48;;;;;;;5.00;2.17;;;23.10;48.60;;;;;;5087056;28;20051;-64
2022/06/22 05:57:39;;;;;;;2.33;2.13;;;22.90;48.10;;;;;;5087815;28;20115;-63
2022/06/22 06:00:24;;;;;;;4.95;2.40;;;22.70;48.40;;;;;;5089369;28;20492;-63
2022/06/22 06:03:04;;;;;;;5.82;1.83;;;22.50;49.50;;;;;;5089799;28;20052;-63
2022/06/22 06:05:37;;;;;;;2.30;1.63;;;22.30;49.10;;;;;;5093741;27;20448;-64
2022/06/22 06:08:38;;;;;;;3.97;2.15;;;22.20;49.20;;;;;;5091822;28;20066;-64
2022/06/22 06:11:11;;;;;;;2.67;2.17;;;22.20;49.50;;;;;;5083988;28;20101;-64
2022/06/22 06:13:50;;;;;;;4.53;2.10;;;22.20;49.50;;;;;;5087812;28;20051;-66
2022/06/22 06:16:25;;;;;;;4.15;1.80;;;22.20;49.50;;;;;;5093025;28;20052;-61
2022/06/22 06:18:58;;;;;;;4.45;1.60;;;22.20;48.40;;;;;;5088179;28;20558;-62
2022/06/22 06:21:31;;;;;;;3.47;2.00;;;22.20;48.30;;;;;;5088763;28;20047;-64
2022/06/22 06:24:20;;;;;;;1.80;1.67;;;22.10;48.10;;;;;;5085393;28;20420;-63
2022/06/22 06:30:18;;;;;;;4.63;2.55;;;22.10;49.30;;;;;;5088948;28;20539;-64
2022/06/22 06:33:12;;;;;;;1.83;1.73;;;22.10;49.20;;;;;;5087449;27;20086;-65
2022/06/22 06:35:56;;;;;;;6.80;3.55;;;22.20;49.40;;;;;;5085472;28;20488;-63
2022/06/22 06:38:30;;;;;;;6.45;2.58;;;22.20;49.70;;;;;;5087504;27;20052;-63
2022/06/22 06:41:17;;;;;;;2.15;1.95;;;22.20;49.20;;;;;;5087781;28;20450;-63
2022/06/22 06:43:52;;;;;;;5.43;1.73;;;22.20;49.60;;;;;;5089895;28;20489;-65
2022/06/22 06:46:40;;;;;;;6.55;1.90;;;22.20;49.30;;;;;;5087548;28;20044;-63
2022/06/22 06:49:29;;;;;;;3.47;1.80;;;22.20;49.30;;;;;;5088220;28;20051;-63
2022/06/22 06:52:04;;;;;;;2.33;1.85;;;22.20;49.10;;;;;;5093279;27;20473;-62
2022/06/22 06:54:56;;;;;;;2.65;1.90;;;22.30;48.90;;;;;;5086777;27;20051;-63
2022/06/22 06:57:23;;;;;;;3.00;2.15;;;22.30;49.00;;;;;;5086308;28;20044;-62
2022/06/22 06:59:54;;;;;;;2.92;2.10;;;22.30;48.90;;;;;;5087477;28;20062;-63
2022/06/22 07:02:33;;;;;;;1.75;1.50;;;22.40;48.70;;;;;;5104437;27;20051;-63
2022/06/22 07:05:04;;;;;;;1.75;1.63;;;22.30;48.90;;;;;;5087038;28;20056;-61
2022/06/22 07:07:53;;;;;;;3.70;1.80;;;22.10;49.40;;;;;;5082165;28;20055;-61
2022/06/22 07:10:45;;;;;;;2.90;1.77;;;21.80;50.20;;;;;;5085871;28;20059;-62
2022/06/22 07:13:26;;;;;;;5.15;1.92;;;21.60;50.70;;;;;;5088570;28;20044;-62
2022/06/22 07:15:57;;;;;;;2.70;1.85;;;21.50;51.30;;;;;;5092229;28;20411;-60
2022/06/22 07:18:34;;;;;;;5.45;1.60;;;21.30;52.00;;;;;;5087728;28;20070;-62
2022/06/22 07:21:21;;;;;;;2.58;2.28;;;21.10;52.50;;;;;;5087321;28;20048;-61
2022/06/22 07:23:54;;;;;;;1.60;1.50;;;21.00;52.90;;;;;;5092777;28;20040;-63
2022/06/22 07:27:01;;;;;;;2.15;1.75;;;20.90;53.30;;;;;;5094498;27;20450;-62
2022/06/22 07:29:40;;;;;;;1.70;1.60;;;20.80;53.50;;;;;;5086435;28;20052;-63
2022/06/22 07:32:29;;;;;;;2.38;1.70;;;20.70;53.90;;;;;;5087495;28;20044;-62
2022/06/22 07:35:05;;;;;;;1.60;1.50;;;20.80;53.40;;;;;;5086148;28;20055;-62
2022/06/22 07:37:38;;;;;;;3.10;1.85;;;20.80;53.40;;;;;;5089107;28;20047;-63
2022/06/22 07:40:13;;;;;;;1.90;1.75;;;20.80;53.30;;;;;;5088774;28;20051;-63
2022/06/22 07:42:40;;;;;;;2.15;1.75;;;20.80;53.30;;;;;;5087897;28;20055;-60
2022/06/22 07:45:15;;;;;;;1.95;1.50;;;20.80;53.30;;;;;;5090233;28;20055;-62
2022/06/22 07:47:51;;;;;;;2.67;1.52;;;20.70;53.40;;;;;;5086171;28;20138;-61
2022/06/22 07:50:32;;;;;;;2.53;1.95;;;20.70;53.40;;;;;;5084626;28;20056;-62
2022/06/22 07:53:18;;;;;;;;;;;20.70;53.50;;;;;;5086890;28;20078;-62
2022/06/22 07:56:08;;;;;;;2.15;1.88;;;20.70;53.60;;;;;;5084114;28;20304;-61
2022/06/22 07:58:57;;;;;;;2.85;1.80;;;20.70;53.80;;;;;;5090032;28;20492;-63
2022/06/22 08:01:30;;;;;;;1.60;1.50;;;20.70;53.90;;;;;;5086308;28;20048;-62
2022/06/22 08:04:14;;;;;;;1.95;1.75;;;20.60;54.10;;;;;;5093824;28;20048;-63
2022/06/22 08:06:48;;;;;;;2.97;1.50;;;20.60;54.30;;;;;;5088128;28;20374;-64
2022/06/22 08:09:25;;;;;;;1.88;1.67;;;20.60;54.40;;;;;;5090747;28;20060;-63
2022/06/22 08:12:12;;;;;;;2.38;1.80;;;20.60;54.40;;;;;;5084985;28;20044;-61
2022/06/22 08:14:43;;;;;;;1.35;1.35;;;20.70;54.60;;;;;;5084866;28;20057;-65
2022/06/22 08:17:37;;;;;;;1.58;1.48;;;20.60;54.50;;;;;;5089954;28;20044;-64
2022/06/22 08:20:06;;;;;;;1.25;1.25;;;20.60;54.60;;;;;;5088340;28;20071;-65
2022/06/22 08:22:33;;;;;;;1.50;1.40;;;20.70;54.60;;;;;;5083911;28;20071;-66
2022/06/22 08:25:04;;;;;;;2.13;1.40;;;20.70;54.70;;;;;;5084810;28;20430;-67
2022/06/22 08:27:32;;;;;;;1.85;1.45;;;20.70;54.70;;;;;;5102901;28;20055;-63
2022/06/22 08:29:59;;;;;;;1.70;1.60;;;20.70;54.60;;;;;;5086650;28;20052;-63
2022/06/22 08:32:49;;;;;;;1.90;1.70;;;20.70;54.60;;;;;;5088249;27;20052;-63
2022/06/22 08:35:26;;;;;;;2.08;1.33;;;20.80;54.60;;;;;;5084926;28;20108;-63
2022/06/22 08:38:07;;;;;;;2.97;1.33;;;20.80;54.50;;;;;;5088803;27;20611;-64
2022/06/22 08:41:14;;;;;;;1.60;1.50;;;20.70;54.50;;;;;;5085872;28;20549;-63
2022/06/22 08:43:59;;;;;;;1.38;1.27;;;20.70;54.80;;;;;;5090816;28;20235;-62
2022/06/22 08:46:54;;;;;;;1.60;1.50;;;20.70;54.80;;;;;;5092964;28;20068;-63
2022/06/22 08:49:50;;;;;;;2.78;1.40;;;20.70;54.80;;;;;;5083658;28;20055;-62
2022/06/22 08:52:40;;;;;;;2.10;1.20;;;20.70;54.80;;;;;;5087172;28;20113;-64
2022/06/22 08:55:59;;;;;;;1.50;1.38;;;20.70;54.90;;;;;;5091198;28;20477;-63
2022/06/22 08:58:49;;;;;;;1.52;1.42;;;20.70;55.00;;;;;;5088438;28;20048;-63
2022/06/22 09:01:45;;;;;;;1.55;1.33;;;20.70;55.00;;;;;;5091326;28;20048;-64
2022/06/22 09:04:36;;;;;;;1.52;1.42;;;20.70;54.90;;;;;;5088159;28;20063;-62
2022/06/22 09:07:25;;;;;;;1.70;1.48;;;20.70;55.00;;;;;;5086147;28;20122;-63
2022/06/22 09:10:28;;;;;;;4.78;1.50;;;20.80;55.10;;;;;;5076250;28;20067;-62
2022/06/22 09:13:22;;;;;;;2.90;1.15;;;20.80;55.10;;;;;;5079538;28;20051;-62
2022/06/22 09:16:13;;;;;;;1.90;1.77;;;20.80;55.10;;;;;;5088697;28;20436;-63
2022/06/22 09:19:15;;;;;;;1.65;1.55;;;20.80;55.00;;;;;;5088672;28;20101;-62
2022/06/22 09:22:22;;;;;;;1.65;1.52;;;20.80;55.00;;;;;;5091114;28;20562;-62
2022/06/22 09:25:24;;;;;;;1.40;1.30;;;20.80;55.00;;;;;;5091949;28;20044;-63
2022/06/22 09:28:04;;;;;;;1.48;1.33;;;20.90;55.20;;;;;;5092782;28;20048;-60
2022/06/22 09:31:04;;;;;;;1.88;1.40;;;20.90;55.20;;;;;;5079900;28;20044;-61
2022/06/22 09:34:01;;;;;;;1.30;1.20;;;20.90;55.10;;;;;;5092984;28;20048;-62
2022/06/22 09:37:00;;;;;;;1.35;1.15;;;21.00;55.20;;;;;;5087439;28;20104;-62
2022/06/22 09:39:54;;;;;;;1.35;1.25;;;21.00;55.10;;;;;;5091935;28;20112;-63
2022/06/22 09:43:00;;;;;;;1.38;1.25;;;21.10;55.00;;;;;;5098165;27;20067;-64
2022/06/22 09:46:01;;;;;;;1.98;1.20;;;21.00;55.00;;;;;;5090319;28;20048;-63
2022/06/22 09:48:55;;;;;;;1.85;1.20;;;21.10;55.00;;;;;;5098208;28;20059;-63
2022/06/22 09:52:02;;;;;;;2.38;1.10;;;21.10;55.20;;;;;;5092556;27;20242;-64
2022/06/22 09:58:37;;;;;;;1.00;0.90;;;21.10;54.80;;;;;;5094488;28;20044;-64
2022/06/22 10:01:29;;;;;;;1.45;1.35;;;21.20;54.60;;;;;;5099573;27;20116;-63
2022/06/22 10:04:36;;;;;;;2.28;1.70;;;21.20;54.40;;;;;;5102487;27;20048;-62
2022/06/22 10:07:35;;;;;;;1.25;1.25;;;21.20;54.40;;;;;;5091000;28;20040;-63
2022/06/22 10:10:23;;;;;;;2.65;1.10;;;21.10;54.10;;;;;;5101802;28;20047;-64
2022/06/22 10:13:22;;;;;;;2.35;1.35;;;21.10;54.10;;;;;;5094025;28;20998;-64
2022/06/22 10:16:19;;;;;;;1.40;1.20;;;21.00;54.10;;;;;;5097397;28;20040;-64
2022/06/22 10:19:17;;;;;;;1.35;1.25;;;21.00;54.00;;;;;;5107793;27;20065;-63
2022/06/22 10:22:10;;;;;;;1.52;1.42;;;21.00;54.00;;;;;;5090854;28;20378;-64
2022/06/22 10:25:13;;;;;;;1.10;1.00;;;20.90;54.00;;;;;;5092354;28;20040;-63
2022/06/22 10:28:22;;;;;;;1.00;0.80;;;20.90;54.00;;;;;;5094034;27;20044;-63
2022/06/22 10:31:07;;;;;;;1.08;0.98;;;20.90;54.10;;;;;;5097658;28;20044;-63
2022/06/22 10:34:14;;;;;;;1.02;0.95;;;20.90;54.30;;;;;;5093641;28;20047;-63
2022/06/22 10:37:09;;;;;;;1.63;1.23;;;20.90;54.40;;;;;;5093081;27;20073;-64
2022/06/22 10:45:08;;;;;;;1.10;1.10;;;20.90;54.60;;;;;;5095084;27;20097;-64
2022/06/22 10:46:21;;;;;;;1.35;1.25;;;20.90;54.90;;;;;;5093389;28;21869;-63
2022/06/22 10:49:21;;;;;;;1.63;1.20;;;21.00;54.70;;;;;;5096781;27;20052;-64
2022/06/22 10:52:12;;;;;;;1.13;1.13;;;21.00;54.70;;;;;;5085701;28;20052;-64
2022/06/22 10:55:19;;;;;;;0.73;0.73;;;21.00;54.50;;;;;;5090528;27;20105;-64
2022/06/22 10:58:10;;;;;;;3.50;1.00;;;21.00;54.40;;;;;;5095043;27;20048;-64
2022/06/22 11:01:17;;;;;;;1.35;1.00;;;21.00;54.30;;;;;;5095962;28;20506;-64
2022/06/22 11:04:24;;;;;;;1.05;1.05;;;21.00;54.20;;;;;;5088092;28;20044;-64
2022/06/22 11:07:12;;;;;;;1.10;1.10;;;21.00;54.30;;;;;;5088702;27;20771;-63
2022/06/22 11:10:05;;;;;;;1.08;0.98;;;21.00;54.20;;;;;;5083686;28;20064;-63
2022/06/22 11:13:11;;;;;;;1.35;1.17;;;21.00;54.20;;;;;;5088387;28;20105;-64
2022/06/22 11:16:11;;;;;;;0.93;0.93;;;20.90;54.40;;;;;;5085941;28;20052;-63
2022/06/22 11:19:12;;;;;;;1.15;0.95;;;20.90;54.50;;;;;;5086427;28;20132;-64
2022/06/22 11:22:04;;;;;;;1.45;1.35;;;20.90;54.80;;;;;;5088761;28;20050;-64
2022/06/22 11:25:07;;;;;;;1.20;1.20;;;20.90;54.90;;;;;;5086931;28;20073;-65
2022/06/22 11:30:59;;;;;;;1.08;1.08;;;21.00;55.20;;;;;;5089262;28;20104;-63
2022/06/22 11:33:57;;;;;;;2.38;1.13;;;21.00;55.20;;;;;;5088558;28;20051;-61
2022/06/22 11:36:48;;;;;;;1.30;1.20;;;21.00;55.20;;;;;;5086965;28;20052;-62
2022/06/22 11:39:52;;;;;;;2.10;2.00;;;21.10;55.40;;;;;;5084744;28;20073;-62
2022/06/22 11:42:43;;;;;;;1.65;1.33;;;21.10;55.30;;;;;;5084599;28;20083;-62
2022/06/22 11:45:50;;;;;;;1.40;1.30;;;21.20;55.30;;;;;;5076369;28;20101;-62
2022/06/22 11:48:56;;;;;;;1.77;1.48;;;21.20;55.20;;;;;;5073779;28;20727;-61
2022/06/22 11:52:03;;;;;;;1.88;1.30;;;21.30;55.10;;;;;;5087442;28;20055;-62
2022/06/22 11:55:09;;;;;;;1.40;1.30;;;21.30;55.00;;;;;;5086210;28;20048;-61
2022/06/22 11:58:11;;;;;;;1.33;1.25;;;21.30;55.00;;;;;;5086510;28;20059;-62
2022/06/22 12:01:00;;;;;;;1.77;1.67;;;21.30;55.10;;;;;;5085674;28;20507;-62
2022/06/22 12:04:08;;;;;;;1.63;1.50;;;21.40;55.20;;;;;;5087618;28;20100;-64
2022/06/22 12:07:04;;;;;;;1.55;1.30;;;21.40;55.20;;;;;;5084724;28;20850;-63
2022/06/22 12:09:41;;;;;;;1.45;1.38;;;21.40;55.30;;;;;;5089374;28;20093;-62
2022/06/22 12:12:48;;;;;;;2.25;1.25;;;21.40;55.40;;;;;;5096732;27;20043;-60
2022/06/22 12:15:40;;;;;;;1.45;1.40;;;21.50;55.50;;;;;;5093540;28;20045;-61
2022/06/22 12:18:41;;;;;;;1.30;1.20;;;21.50;55.70;;;;;;5090731;28;20377;-61
2022/06/22 12:21:29;;;;;;;1.67;1.58;;;21.50;55.80;;;;;;5087683;28;20055;-62
2022/06/22 12:24:25;;;;;;;1.38;1.27;;;21.50;55.80;;;;;;5090405;28;20052;-62
2022/06/22 12:27:21;;;;;;;1.17;1.10;;;21.50;55.90;;;;;;5088519;28;20040;-62
2022/06/22 12:30:19;;;;;;;1.58;1.40;;;21.50;56.00;;;;;;5091582;28;20100;-62
2022/06/22 12:33:11;;;;;;;1.58;1.48;;;21.50;56.00;;;;;;5090164;28;20039;-62
2022/06/22 12:35:56;;;;;;;5.03;2.25;;;21.50;56.30;;;;;;5091745;28;20048;-62
2022/06/22 12:38:40;;;;;;;1.45;1.35;;;21.60;56.50;;;;;;5090147;28;20403;-62
2022/06/22 12:42:01;;;;;;;1.60;1.58;;;21.60;56.60;;;;;;5092562;28;20164;-61
2022/06/22 12:45:03;;;;;;;1.42;1.42;;;21.60;56.80;;;;;;5098238;27;20087;-62
2022/06/22 12:48:10;;;;;;;1.92;1.67;;;21.60;56.90;;;;;;5091149;27;20480;-62
2022/06/22 12:51:08;;;;;;;2.30;1.40;;;21.70;56.90;;;;;;5095473;27;20048;-61
2022/06/22 12:53:47;;;;;;;1.85;1.75;;;21.80;56.90;;;;;;5093954;28;20074;-62
2022/06/22 12:56:29;;;;;;;2.22;2.03;;;21.80;57.00;;;;;;5090904;28;20101;-62
2022/06/22 12:59:11;;;;;;;1.83;1.73;;;21.90;57.80;;;;;;5089828;28;20437;-61
2022/06/22 13:01:39;;;;;;;1.55;1.45;;;22.10;57.60;;;;;;5093345;28;20847;-61
2022/06/22 13:04:16;;;;;;;1.90;1.77;;;22.20;57.30;;;;;;5087604;28;20260;-61
2022/06/22 13:06:51;;;;;;;2.13;1.75;;;22.40;57.50;;;;;;5090803;27;20049;-61
2022/06/22 13:09:20;;;;;;;1.85;1.70;;;22.40;57.40;;;;;;5089212;28;20187;-61
2022/06/22 13:11:49;;;;;;;2.50;1.85;;;22.50;57.30;;;;;;5091653;28;20040;-62
2022/06/22 13:14:40;;;;;;;1.90;1.70;;;22.60;56.90;;;;;;5094035;28;20193;-63
2022/06/22 13:17:28;;;;;;;;;;;22.70;56.90;;;;;;5090052;28;20048;-63
2022/06/22 13:20:29;;;;;;;1.63;1.52;;;22.70;56.80;;;;;;5095752;28;20376;-64
2022/06/22 13:23:08;;;;;;;1.83;1.73;;;22.90;56.70;;;;;;5099668;28;20737;-64
2022/06/22 13:26:00;;;;;;;1.75;1.65;;;22.90;57.10;;;;;;5092289;28;20047;-63
2022/06/22 13:28:53;;;;;;;1.65;1.50;;;22.90;56.50;;;;;;5098857;28;20047;-62
2022/06/22 13:31:30;;;;;;;1.55;1.45;;;23.00;56.50;;;;;;5091275;28;20496;-62
2022/06/22 13:34:05;;;;;;;1.55;1.45;;;23.00;56.40;;;;;;5086045;28;20047;-64
2022/06/22 13:37:06;;;;;;;1.67;1.50;;;22.90;56.40;;;;;;5093115;28;20052;-64
2022/06/22 13:40:05;;;;;;;2.28;1.50;;;22.90;56.20;;;;;;5084456;28;20499;-65
2022/06/22 13:43:15;;;;;;;1.60;1.42;;;23.00;56.20;;;;;;5091158;28;20043;-65
2022/06/22 13:46:14;;;;;;;1.90;1.73;;;23.00;56.10;;;;;;5088340;28;20540;-65
2022/06/22 13:49:11;;;;;;;1.45;1.35;;;23.00;56.30;;;;;;5091492;28;20437;-65
2022/06/22 13:52:10;;;;;;;1.65;1.55;;;23.00;56.30;;;;;;5091932;28;20413;-64
2022/06/22 13:55:17;;;;;;;1.40;1.40;;;23.00;55.90;;;;;;5093453;28;20078;-62
2022/06/22 13:57:56;;;;;;;1.52;1.42;;;23.00;55.70;;;;;;5097344;28;20047;-64
2022/06/22 14:00:44;;;;;;;1.40;1.38;;;23.00;55.00;;;;;;5089920;28;20043;-65
2022/06/22 14:03:44;;;;;;;2.30;1.42;;;22.90;54.90;;;;;;5098464;28;20062;-62
2022/06/22 14:06:27;;;;;;;2.75;1.60;;;22.90;55.10;;;;;;5091801;28;20088;-64
2022/06/22 14:09:14;;;;;;;2.72;1.83;;;22.80;55.20;;;;;;5094456;28;20055;-64
2022/06/22 14:12:03;;;;;;;2.65;1.80;;;22.70;55.30;;;;;;5090165;28;20407;-64
2022/06/22 14:14:54;;;;;;;1.63;1.55;;;22.60;55.50;;;;;;5092444;28;20497;-64
2022/06/22 14:17:28;;;;;;;3.45;1.60;;;22.60;55.50;;;;;;5089876;28;20048;-64
2022/06/22 14:20:36;;;;;;;1.60;1.50;;;22.60;55.70;;;;;;5091924;28;20055;-62
2022/06/22 14:23:14;;;;;;;1.70;1.60;;;22.50;55.80;;;;;;5093416;27;20092;-63
2022/06/22 14:26:14;;;;;;;2.13;1.50;;;22.50;55.80;;;;;;5090261;28;20855;-63
2022/06/22 14:29:01;;;;;;;1.67;1.58;;;22.50;55.90;;;;;;5094246;28;20055;-63
2022/06/22 14:31:43;;;;;;;1.70;1.60;;;22.50;56.00;;;;;;5095780;28;20413;-62
2022/06/22 14:34:38;;;;;;;2.30;1.98;;;22.40;55.90;;;;;;5095617;28;20577;-62
2022/06/22 14:37:24;;;;;;;1.50;1.40;;;22.40;55.90;;;;;;5092601;28;20725;-62
2022/06/22 14:40:18;;;;;;;1.88;1.77;;;22.40;55.70;;;;;;5102944;27;20043;-62